sensor_id;sensor_type;location;lat;lon;timestamp;pressure;altitude;pressure_sealevel;temperature;humidity
33949;BME280;20229;49.856;19.030;2023-03-02T00:02:17;102457.52;;;-3.96;81.53
33949;BME280;20229;49.856;19.030;2023-03-02T00:07:35;102457.46;;;-3.99;81.61
33949;BME280;20229;49.856;19.030;2023-03-02T00:12:50;102465.37;;;-4.02;81.92
33949;BME280;20229;49.856;19.030;2023-03-02T00:18:05;102453.63;;;-4.07;81.59
33949;BME280;20229;49.856;19.030;2023-03-02T00:23:18;102458.83;;;-4.12;81.97
33949;BME280;20229;49.856;19.030;2023-03-02T00:28:34;102454.19;;;-4.17;81.51
33949;BME280;20229;49.856;19.030;2023-03-02T00:33:48;102444.18;;;-4.24;82.21
33949;BME280;20229;49.856;19.030;2023-03-02T00:39:06;102454.78;;;-4.27;81.92
33949;BME280;20229;49.856;19.030;2023-03-02T00:44:20;102453.67;;;-4.34;84.43
33949;BME280;20229;49.856;19.030;2023-03-02T00:49:34;102440.17;;;-4.39;82.60
33949;BME280;20229;49.856;19.030;2023-03-02T00:54:49;102441.80;;;-4.44;84.35
33949;BME280;20229;49.856;19.030;2023-03-02T01:00:03;102435.39;;;-4.49;82.84
33949;BME280;20229;49.856;19.030;2023-03-02T01:05:18;102429.05;;;-4.52;83.43
33949;BME280;20229;49.856;19.030;2023-03-02T01:10:33;102416.45;;;-4.58;84.10
33949;BME280;20229;49.856;19.030;2023-03-02T01:15:47;102415.45;;;-4.62;83.93
33949;BME280;20229;49.856;19.030;2023-03-02T01:21:10;102417.23;;;-4.62;83.51
33949;BME280;20229;49.856;19.030;2023-03-02T01:26:24;102407.31;;;-4.66;83.42
33949;BME280;20229;49.856;19.030;2023-03-02T01:31:38;102406.34;;;-4.68;83.24
33949;BME280;20229;49.856;19.030;2023-03-02T01:36:55;102404.36;;;-4.74;83.68
33949;BME280;20229;49.856;19.030;2023-03-02T01:42:08;102404.23;;;-4.78;84.24
33949;BME280;20229;49.856;19.030;2023-03-02T01:47:27;102413.91;;;-4.81;83.43
33949;BME280;20229;49.856;19.030;2023-03-02T01:52:45;102396.99;;;-4.83;83.57
33949;BME280;20229;49.856;19.030;2023-03-02T01:58:00;102383.45;;;-4.89;84.32
33949;BME280;20229;49.856;19.030;2023-03-02T02:03:22;102381.55;;;-4.93;83.87
33949;BME280;20229;49.856;19.030;2023-03-02T02:08:37;102378.86;;;-4.94;83.58
33949;BME280;20229;49.856;19.030;2023-03-02T02:13:56;102371.70;;;-4.95;83.80
33949;BME280;20229;49.856;19.030;2023-03-02T02:24:43;102367.98;;;-5.00;83.97
33949;BME280;20229;49.856;19.030;2023-03-02T02:30:01;102366.08;;;-5.05;85.17
33949;BME280;20229;49.856;19.030;2023-03-02T02:35:18;102360.57;;;-5.09;84.46
33949;BME280;20229;49.856;19.030;2023-03-02T02:40:44;102348.98;;;-5.11;84.34
33949;BME280;20229;49.856;19.030;2023-03-02T02:45:59;102359.63;;;-5.11;84.42
33949;BME280;20229;49.856;19.030;2023-03-02T02:51:19;102351.53;;;-5.14;84.89
33949;BME280;20229;49.856;19.030;2023-03-02T02:56:36;102347.98;;;-5.15;84.92
33949;BME280;20229;49.856;19.030;2023-03-02T03:01:51;102352.28;;;-5.18;84.52
33949;BME280;20229;49.856;19.030;2023-03-02T03:07:05;102353.16;;;-5.19;84.47
33949;BME280;20229;49.856;19.030;2023-03-02T03:12:21;102342.42;;;-5.21;84.86
33949;BME280;20229;49.856;19.030;2023-03-02T03:17:36;102345.99;;;-5.20;84.63
33949;BME280;20229;49.856;19.030;2023-03-02T03:22:50;102342.28;;;-5.25;84.78
33949;BME280;20229;49.856;19.030;2023-03-02T03:28:05;102341.31;;;-5.27;84.92
33949;BME280;20229;49.856;19.030;2023-03-02T03:33:19;102332.28;;;-5.33;84.82
33949;BME280;20229;49.856;19.030;2023-03-02T03:38:33;102322.46;;;-5.34;84.57
33949;BME280;20229;49.856;19.030;2023-03-02T03:43:47;102322.42;;;-5.35;84.34
33949;BME280;20229;49.856;19.030;2023-03-02T03:49:02;102320.63;;;-5.36;84.58
33949;BME280;20229;49.856;19.030;2023-03-02T03:54:16;102324.94;;;-5.40;84.62
33949;BME280;20229;49.856;19.030;2023-03-02T03:59:30;102326.70;;;-5.40;83.94
33949;BME280;20229;49.856;19.030;2023-03-02T04:04:44;102310.62;;;-5.43;84.88
33949;BME280;20229;49.856;19.030;2023-03-02T04:09:58;102311.45;;;-5.44;84.31
33949;BME280;20229;49.856;19.030;2023-03-02T04:15:16;102306.95;;;-5.47;84.61
33949;BME280;20229;49.856;19.030;2023-03-02T04:20:31;102300.66;;;-5.49;84.86
33949;BME280;20229;49.856;19.030;2023-03-02T04:25:45;102307.71;;;-5.51;84.23
33949;BME280;20229;49.856;19.030;2023-03-02T04:30:58;102299.64;;;-5.53;84.67
33949;BME280;20229;49.856;19.030;2023-03-02T04:36:12;102296.08;;;-5.53;84.92
33949;BME280;20229;49.856;19.030;2023-03-02T04:41:26;102300.55;;;-5.52;84.56
33949;BME280;20229;49.856;19.030;2023-03-02T04:46:41;102297.77;;;-5.55;84.63
33949;BME280;20229;49.856;19.030;2023-03-02T04:51:54;102298.64;;;-5.56;84.49
33949;BME280;20229;49.856;19.030;2023-03-02T04:57:08;102303.02;;;-5.58;84.69
33949;BME280;20229;49.856;19.030;2023-03-02T05:02:22;102302.95;;;-5.60;85.19
33949;BME280;20229;49.856;19.030;2023-03-02T05:07:36;102302.80;;;-5.64;84.83
33949;BME280;20229;49.856;19.030;2023-03-02T05:12:50;102292.16;;;-5.64;85.20
33949;BME280;20229;49.856;19.030;2023-03-02T05:18:11;102308.11;;;-5.64;85.27
33949;BME280;20229;49.856;19.030;2023-03-02T05:23:25;102312.58;;;-5.63;84.83
33949;BME280;20229;49.856;19.030;2023-03-02T05:28:44;102320.55;;;-5.63;85.43
33949;BME280;20229;49.856;19.030;2023-03-02T05:33:58;102319.70;;;-5.62;86.03
33949;BME280;20229;49.856;19.030;2023-03-02T05:39:12;102317.03;;;-5.62;85.74
33949;BME280;20229;49.856;19.030;2023-03-02T05:44:26;102319.99;;;-5.55;85.64
33949;BME280;20229;49.856;19.030;2023-03-02T05:49:40;102318.42;;;-5.48;86.28
33949;BME280;20229;49.856;19.030;2023-03-02T05:54:54;102328.42;;;-5.41;86.91
33949;BME280;20229;49.856;19.030;2023-03-02T06:00:12;102324.23;;;-5.34;86.31
33949;BME280;20229;49.856;19.030;2023-03-02T06:05:26;102321.13;;;-5.21;86.51
33949;BME280;20229;49.856;19.030;2023-03-02T06:10:40;102324.15;;;-5.10;86.15
33949;BME280;20229;49.856;19.030;2023-03-02T06:15:53;102338.83;;;-4.96;86.56
33949;BME280;20229;49.856;19.030;2023-03-02T06:21:09;102325.96;;;-4.82;86.16
33949;BME280;20229;49.856;19.030;2023-03-02T06:26:22;102333.54;;;-4.67;86.02
33949;BME280;20229;49.856;19.030;2023-03-02T06:31:36;102338.51;;;-4.51;87.64
33949;BME280;20229;49.856;19.030;2023-03-02T06:36:50;102342.64;;;-4.32;87.10
33949;BME280;20229;49.856;19.030;2023-03-02T06:42:04;102345.04;;;-4.11;87.59
33949;BME280;20229;49.856;19.030;2023-03-02T06:47:17;102336.59;;;-3.65;87.03
33949;BME280;20229;49.856;19.030;2023-03-02T06:52:31;102325.42;;;-3.50;86.73
33949;BME280;20229;49.856;19.030;2023-03-02T06:57:45;102323.88;;;-3.42;86.04
33949;BME280;20229;49.856;19.030;2023-03-02T07:02:59;102329.62;;;-3.26;86.32
33949;BME280;20229;49.856;19.030;2023-03-02T07:08:16;102332.91;;;-3.02;86.98
33949;BME280;20229;49.856;19.030;2023-03-02T07:13:30;102333.50;;;-2.79;86.93
33949;BME280;20229;49.856;19.030;2023-03-02T07:18:44;102327.88;;;-2.52;86.83
33949;BME280;20229;49.856;19.030;2023-03-02T07:23:57;102330.20;;;-2.29;86.26
33949;BME280;20229;49.856;19.030;2023-03-02T07:29:11;102329.05;;;-1.98;85.22
33949;BME280;20229;49.856;19.030;2023-03-02T07:34:26;102317.95;;;-1.74;84.66
33949;BME280;20229;49.856;19.030;2023-03-02T07:39:39;102306.37;;;-1.25;84.50
33949;BME280;20229;49.856;19.030;2023-03-02T07:44:53;102292.13;;;3.78;79.31
33949;BME280;20229;49.856;19.030;2023-03-02T07:50:08;102278.49;;;9.39;61.78
33949;BME280;20229;49.856;19.030;2023-03-02T07:55:22;102251.48;;;12.59;47.50
33949;BME280;20229;49.856;19.030;2023-03-02T08:00:36;102267.48;;;13.14;43.69
33949;BME280;20229;49.856;19.030;2023-03-02T08:05:51;102267.29;;;14.02;43.46
33949;BME280;20229;49.856;19.030;2023-03-02T08:11:08;102262.20;;;15.96;45.60
33949;BME280;20229;49.856;19.030;2023-03-02T08:16:22;102257.50;;;18.02;36.48
33949;BME280;20229;49.856;19.030;2023-03-02T08:21:38;102252.18;;;19.52;31.89
33949;BME280;20229;49.856;19.030;2023-03-02T08:26:53;102250.48;;;20.40;32.35
33949;BME280;20229;49.856;19.030;2023-03-02T08:32:08;102245.30;;;21.46;28.96
33949;BME280;20229;49.856;19.030;2023-03-02T08:37:25;102241.76;;;21.90;28.71
33949;BME280;20229;49.856;19.030;2023-03-02T08:42:39;102247.02;;;18.50;31.71
33949;BME280;20229;49.856;19.030;2023-03-02T08:47:52;102253.42;;;15.18;36.26
33949;BME280;20229;49.856;19.030;2023-03-02T08:53:07;102256.47;;;13.15;40.19
33949;BME280;20229;49.856;19.030;2023-03-02T08:58:21;102256.24;;;11.84;41.38
33949;BME280;20229;49.856;19.030;2023-03-02T09:03:35;102262.24;;;11.17;44.93
33949;BME280;20229;49.856;19.030;2023-03-02T09:08:49;102251.82;;;10.73;45.67
33949;BME280;20229;49.856;19.030;2023-03-02T09:14:03;102253.81;;;10.40;47.68
33949;BME280;20229;49.856;19.030;2023-03-02T09:19:17;102247.63;;;10.02;43.43
33949;BME280;20229;49.856;19.030;2023-03-02T09:24:31;102252.52;;;9.91;45.46
33949;BME280;20229;49.856;19.030;2023-03-02T09:30:19;102254.15;;;9.66;43.93
33949;BME280;20229;49.856;19.030;2023-03-02T09:35:45;102249.88;;;9.55;44.47
33949;BME280;20229;49.856;19.030;2023-03-02T09:41:12;102240.68;;;9.60;44.92
33949;BME280;20229;49.856;19.030;2023-03-02T09:46:32;102232.12;;;9.41;44.71
33949;BME280;20229;49.856;19.030;2023-03-02T09:52:07;102233.85;;;9.43;45.62
33949;BME280;20229;49.856;19.030;2023-03-02T09:57:23;102232.80;;;9.49;43.52
33949;BME280;20229;49.856;19.030;2023-03-02T10:02:48;102223.60;;;9.53;43.50
33949;BME280;20229;49.856;19.030;2023-03-02T10:08:03;102214.77;;;9.76;44.66
33949;BME280;20229;49.856;19.030;2023-03-02T10:13:34;102212.71;;;9.84;44.47
33949;BME280;20229;49.856;19.030;2023-03-02T10:35:48;102174.12;;;9.98;45.02
33949;BME280;20229;49.856;19.030;2023-03-02T10:41:04;102170.59;;;9.94;43.70
33949;BME280;20229;49.856;19.030;2023-03-02T10:46:22;102155.72;;;10.04;43.69
33949;BME280;20229;49.856;19.030;2023-03-02T10:51:36;102155.10;;;9.95;43.43
33949;BME280;20229;49.856;19.030;2023-03-02T10:56:53;102157.89;;;9.93;44.74
33949;BME280;20229;49.856;19.030;2023-03-02T11:02:18;102153.63;;;10.13;45.48
33949;BME280;20229;49.856;19.030;2023-03-02T11:07:37;102143.27;;;10.25;45.09
33949;BME280;20229;49.856;19.030;2023-03-02T11:12:52;102135.80;;;10.31;44.51
33949;BME280;20229;49.856;19.030;2023-03-02T11:29:40;102116.61;;;10.34;44.44
33949;BME280;20229;49.856;19.030;2023-03-02T11:34:59;102102.86;;;10.37;43.87
33949;BME280;20229;49.856;19.030;2023-03-02T11:40:25;102086.74;;;10.56;44.71
33949;BME280;20229;49.856;19.030;2023-03-02T11:45:45;102092.20;;;10.56;44.97
33949;BME280;20229;49.856;19.030;2023-03-02T11:51:04;102077.49;;;10.60;43.89
33949;BME280;20229;49.856;19.030;2023-03-02T11:56:24;102080.45;;;10.53;43.06
33949;BME280;20229;49.856;19.030;2023-03-02T12:02:16;102084.11;;;10.52;43.36
33949;BME280;20229;49.856;19.030;2023-03-02T12:07:34;102060.69;;;10.72;44.53
33949;BME280;20229;49.856;19.030;2023-03-02T12:51:29;102016.00;;;10.74;42.31
33949;BME280;20229;49.856;19.030;2023-03-02T12:56:44;102009.75;;;10.71;43.02
33949;BME280;20229;49.856;19.030;2023-03-02T13:07:37;102005.21;;;10.70;42.54
33949;BME280;20229;49.856;19.030;2023-03-02T13:12:54;102006.17;;;10.69;42.44
33949;BME280;20229;49.856;19.030;2023-03-02T13:18:20;101990.00;;;10.63;42.21
33949;BME280;20229;49.856;19.030;2023-03-02T13:23:35;101985.67;;;10.57;43.23
33949;BME280;20229;49.856;19.030;2023-03-02T13:34:25;101971.34;;;10.50;42.24
33949;BME280;20229;49.856;19.030;2023-03-02T13:39:43;101960.31;;;10.53;43.48
33949;BME280;20229;49.856;19.030;2023-03-02T13:51:13;101952.93;;;10.56;43.72
33949;BME280;20229;49.856;19.030;2023-03-02T13:56:23;101949.29;;;10.57;43.03
33949;BME280;20229;49.856;19.030;2023-03-02T14:01:39;101944.74;;;10.56;44.03
33949;BME280;20229;49.856;19.030;2023-03-02T14:06:56;101941.23;;;10.52;43.32
33949;BME280;20229;49.856;19.030;2023-03-02T14:12:28;101929.53;;;10.48;43.01
33949;BME280;20229;49.856;19.030;2023-03-02T14:17:47;101926.70;;;10.51;44.29
33949;BME280;20229;49.856;19.030;2023-03-02T14:23:08;101924.86;;;10.52;43.76
33949;BME280;20229;49.856;19.030;2023-03-02T14:28:30;101914.11;;;10.47;43.79
33949;BME280;20229;49.856;19.030;2023-03-02T14:33:47;101915.39;;;10.37;44.48
33949;BME280;20229;49.856;19.030;2023-03-02T14:39:04;101909.23;;;10.32;44.07
33949;BME280;20229;49.856;19.030;2023-03-02T14:44:19;101907.74;;;10.22;43.88
33949;BME280;20229;49.856;19.030;2023-03-02T14:49:36;101904.26;;;10.17;44.59
33949;BME280;20229;49.856;19.030;2023-03-02T14:54:58;101905.53;;;10.06;44.79
33949;BME280;20229;49.856;19.030;2023-03-02T15:00:36;101907.65;;;9.98;45.43
33949;BME280;20229;49.856;19.030;2023-03-02T15:05:34;101898.06;;;9.87;44.80
33949;BME280;20229;49.856;19.030;2023-03-02T15:10:49;101895.64;;;9.77;44.15
33949;BME280;20229;49.856;19.030;2023-03-02T15:16:03;101897.74;;;9.69;45.24
33949;BME280;20229;49.856;19.030;2023-03-02T15:21:20;101890.02;;;9.55;45.77
33949;BME280;20229;49.856;19.030;2023-03-02T15:26:35;101896.88;;;9.41;45.96
33949;BME280;20229;49.856;19.030;2023-03-02T15:31:56;101901.82;;;9.28;46.19
33949;BME280;20229;49.856;19.030;2023-03-02T15:37:13;101908.59;;;9.15;46.92
33949;BME280;20229;49.856;19.030;2023-03-02T15:42:30;101907.34;;;8.97;46.98
33949;BME280;20229;49.856;19.030;2023-03-02T15:47:44;101900.68;;;8.77;46.95
33949;BME280;20229;49.856;19.030;2023-03-02T15:52:59;101902.11;;;8.59;48.12
33949;BME280;20229;49.856;19.030;2023-03-02T15:58:13;101900.88;;;8.37;48.84
33949;BME280;20229;49.856;19.030;2023-03-02T16:03:27;101902.38;;;8.16;48.98
33949;BME280;20229;49.856;19.030;2023-03-02T16:08:41;101903.98;;;7.90;49.87
33949;BME280;20229;49.856;19.030;2023-03-02T16:13:55;101905.55;;;7.65;50.33
33949;BME280;20229;49.856;19.030;2023-03-02T16:19:13;101914.28;;;7.42;50.96
33949;BME280;20229;49.856;19.030;2023-03-02T16:24:27;101901.30;;;7.16;51.78
33949;BME280;20229;49.856;19.030;2023-03-02T16:29:40;101909.16;;;6.89;52.00
33949;BME280;20229;49.856;19.030;2023-03-02T16:34:55;101904.20;;;6.68;52.76
33949;BME280;20229;49.856;19.030;2023-03-02T16:40:10;101899.34;;;6.39;53.13
33949;BME280;20229;49.856;19.030;2023-03-02T16:45:24;101909.77;;;6.15;53.74
33949;BME280;20229;49.856;19.030;2023-03-02T16:50:42;101920.19;;;5.87;54.30
33949;BME280;20229;49.856;19.030;2023-03-02T16:55:56;101922.42;;;5.62;54.81
33949;BME280;20229;49.856;19.030;2023-03-02T17:01:14;101923.66;;;5.40;55.41
33949;BME280;20229;49.856;19.030;2023-03-02T17:06:28;101923.98;;;5.18;55.84
33949;BME280;20229;49.856;19.030;2023-03-02T17:11:42;101934.27;;;4.95;56.81
33949;BME280;20229;49.856;19.030;2023-03-02T17:16:55;101929.12;;;4.73;57.22
33949;BME280;20229;49.856;19.030;2023-03-02T17:22:09;101928.52;;;4.50;58.07
33949;BME280;20229;49.856;19.030;2023-03-02T17:27:23;101938.70;;;4.28;58.81
33949;BME280;20229;49.856;19.030;2023-03-02T17:32:40;101939.81;;;4.07;59.10
33949;BME280;20229;49.856;19.030;2023-03-02T17:37:54;101947.18;;;3.90;59.47
33949;BME280;20229;49.856;19.030;2023-03-02T17:43:08;101945.52;;;3.70;60.33
33949;BME280;20229;49.856;19.030;2023-03-02T17:48:24;101943.02;;;3.46;60.92
33949;BME280;20229;49.856;19.030;2023-03-02T17:53:45;101942.28;;;3.25;61.50
33949;BME280;20229;49.856;19.030;2023-03-02T17:59:00;101936.09;;;3.06;62.01
33949;BME280;20229;49.856;19.030;2023-03-02T18:04:17;101924.52;;;2.87;62.31
33949;BME280;20229;49.856;19.030;2023-03-02T18:09:31;101920.12;;;2.70;63.06
33949;BME280;20229;49.856;19.030;2023-03-02T18:14:44;101929.15;;;2.53;63.32
33949;BME280;20229;49.856;19.030;2023-03-02T18:19:58;101942.67;;;2.39;63.86
33949;BME280;20229;49.856;19.030;2023-03-02T18:25:12;101945.45;;;2.20;64.65
33949;BME280;20229;49.856;19.030;2023-03-02T18:30:25;101948.16;;;2.06;64.72
33949;BME280;20229;49.856;19.030;2023-03-02T18:35:40;101951.75;;;1.89;66.03
33949;BME280;20229;49.856;19.030;2023-03-02T18:40:53;101955.35;;;1.76;65.13
33949;BME280;20229;49.856;19.030;2023-03-02T18:46:22;101958.06;;;1.59;67.65
33949;BME280;20229;49.856;19.030;2023-03-02T18:51:36;101956.23;;;1.44;66.85
33949;BME280;20229;49.856;19.030;2023-03-02T18:56:49;101952.63;;;1.26;66.80
33949;BME280;20229;49.856;19.030;2023-03-02T19:02:11;101951.69;;;1.13;69.14
33949;BME280;20229;49.856;19.030;2023-03-02T19:07:26;101956.16;;;1.00;69.35
33949;BME280;20229;49.856;19.030;2023-03-02T19:12:40;101962.38;;;0.91;69.10
33949;BME280;20229;49.856;19.030;2023-03-02T19:17:54;101964.13;;;0.77;69.62
33949;BME280;20229;49.856;19.030;2023-03-02T19:23:09;101962.30;;;0.64;71.03
33949;BME280;20229;49.856;19.030;2023-03-02T19:28:23;101969.40;;;0.53;70.44
33949;BME280;20229;49.856;19.030;2023-03-02T19:33:39;101966.69;;;0.43;70.89
33949;BME280;20229;49.856;19.030;2023-03-02T19:38:54;101976.47;;;0.35;71.07
33949;BME280;20229;49.856;19.030;2023-03-02T19:44:08;101974.68;;;0.34;71.36
33949;BME280;20229;49.856;19.030;2023-03-02T19:49:22;101975.54;;;0.27;71.38
33949;BME280;20229;49.856;19.030;2023-03-02T19:54:36;101974.57;;;0.16;71.84
33949;BME280;20229;49.856;19.030;2023-03-02T19:59:51;101973.61;;;0.05;73.09
33949;BME280;20229;49.856;19.030;2023-03-02T20:05:07;101975.38;;;0.03;72.08
33949;BME280;20229;49.856;19.030;2023-03-02T20:15:47;101969.88;;;-0.17;72.64
33949;BME280;20229;49.856;19.030;2023-03-02T20:21:01;101964.45;;;-0.23;73.48
33949;BME280;20229;49.856;19.030;2023-03-02T20:26:14;101974.23;;;-0.29;73.09
33949;BME280;20229;49.856;19.030;2023-03-02T20:31:28;101963.46;;;-0.33;74.21
33949;BME280;20229;49.856;19.030;2023-03-02T20:36:43;101959.85;;;-0.38;74.30
33949;BME280;20229;49.856;19.030;2023-03-02T20:41:58;101961.59;;;-0.43;74.77
33949;BME280;20229;49.856;19.030;2023-03-02T20:47:14;101952.62;;;-0.49;74.68
33949;BME280;20229;49.856;19.030;2023-03-02T20:52:28;101951.63;;;-0.58;74.66
33949;BME280;20229;49.856;19.030;2023-03-02T20:57:42;101950.70;;;-0.62;75.10
33949;BME280;20229;49.856;19.030;2023-03-02T21:02:56;101951.52;;;-0.69;75.57
33949;BME280;20229;49.856;19.030;2023-03-02T21:08:11;101947.91;;;-0.74;75.46
33949;BME280;20229;49.856;19.030;2023-03-02T21:13:27;101953.20;;;-0.80;76.57
33949;BME280;20229;49.856;19.030;2023-03-02T21:18:41;101950.49;;;-0.83;76.65
33949;BME280;20229;49.856;19.030;2023-03-02T21:23:54;101948.63;;;-0.90;76.39
33949;BME280;20229;49.856;19.030;2023-03-02T21:29:10;101944.12;;;-0.94;76.55
33949;BME280;20229;49.856;19.030;2023-03-02T21:34:24;101952.09;;;-1.01;76.05
33949;BME280;20229;49.856;19.030;2023-03-02T21:39:38;101943.13;;;-1.06;78.50
33949;BME280;20229;49.856;19.030;2023-03-02T21:44:51;101946.58;;;-1.16;77.58
33949;BME280;20229;49.856;19.030;2023-03-02T21:50:08;101942.02;;;-1.22;77.17
33949;BME280;20229;49.856;19.030;2023-03-02T21:55:24;101939.30;;;-1.26;77.76
33949;BME280;20229;49.856;19.030;2023-03-02T22:00:39;101938.41;;;-1.25;77.75
33949;BME280;20229;49.856;19.030;2023-03-02T22:05:53;101933.02;;;-1.30;78.24
33949;BME280;20229;49.856;19.030;2023-03-02T22:11:11;101942.75;;;-1.36;78.49
33949;BME280;20229;49.856;19.030;2023-03-02T22:16:32;101940.88;;;-1.43;80.63
33949;BME280;20229;49.856;19.030;2023-03-02T22:21:47;101936.37;;;-1.48;79.28
33949;BME280;20229;49.856;19.030;2023-03-02T22:27:17;101940.75;;;-1.53;78.63
33949;BME280;20229;49.856;19.030;2023-03-02T22:37:47;101942.45;;;-1.61;80.48
33949;BME280;20229;49.856;19.030;2023-03-02T22:43:10;101928.11;;;-1.66;80.75
33949;BME280;20229;49.856;19.030;2023-03-02T22:48:27;101922.62;;;-1.75;81.06
33949;BME280;20229;49.856;19.030;2023-03-02T22:53:50;101923.51;;;-1.76;80.15
33949;BME280;20229;49.856;19.030;2023-03-02T22:59:15;101918.06;;;-1.82;80.51
33949;BME280;20229;49.856;19.030;2023-03-02T23:04:34;101914.45;;;-1.86;82.11
33949;BME280;20229;49.856;19.030;2023-03-02T23:09:49;101911.71;;;-1.90;80.62
33949;BME280;20229;49.856;19.030;2023-03-02T23:15:13;101917.92;;;-1.92;81.62
33949;BME280;20229;49.856;19.030;2023-03-02T23:20:26;101907.11;;;-2.01;82.10
33949;BME280;20229;49.856;19.030;2023-03-02T23:25:40;101899.00;;;-2.05;81.67
33949;BME280;20229;49.856;19.030;2023-03-02T23:30:54;101906.08;;;-2.09;81.74
33949;BME280;20229;49.856;19.030;2023-03-02T23:36:08;101899.77;;;-2.15;83.41
33949;BME280;20229;49.856;19.030;2023-03-02T23:41:22;101893.37;;;-2.25;82.67
33949;BME280;20229;49.856;19.030;2023-03-02T23:46:36;101890.66;;;-2.27;82.28
33949;BME280;20229;49.856;19.030;2023-03-02T23:51:49;101891.48;;;-2.32;84.45
33949;BME280;20229;49.856;19.030;2023-03-02T23:57:03;101883.41;;;-2.34;82.53
